createdAt,value
2017-06-08T00:00:57.691Z,1008.35
2017-06-08T00:01:58.990Z,1008.34
2017-06-08T00:03:00.309Z,1008.3
2017-06-08T00:04:01.492Z,1008.29
2017-06-08T00:05:02.739Z,1008.27
2017-06-08T00:06:03.996Z,1008.28
2017-06-08T00:07:05.237Z,1008.26
2017-06-08T00:08:06.500Z,1008.26
2017-06-08T00:09:07.735Z,1008.27
2017-06-08T00:10:09.050Z,1008.26
2017-06-08T00:11:10.277Z,1008.25
2017-06-08T00:12:11.540Z,1008.22
2017-06-08T00:13:12.785Z,1008.25
2017-06-08T00:14:14.029Z,1008.2
2017-06-08T00:15:15.371Z,1008.24
2017-06-08T00:16:16.642Z,1008.25
2017-06-08T00:17:17.897Z,1008.23
2017-06-08T00:18:19.142Z,1008.27
2017-06-08T00:19:20.426Z,1008.24
2017-06-08T00:20:21.639Z,1008.24
2017-06-08T00:21:22.884Z,1008.19
2017-06-08T00:22:24.220Z,1008.21
2017-06-08T00:23:25.467Z,1008.18
2017-06-08T00:24:26.703Z,1008.2
2017-06-08T00:25:27.953Z,1008.19
2017-06-08T00:26:29.206Z,1008.19
2017-06-08T00:27:30.463Z,1008.17
2017-06-08T00:28:31.706Z,1008.16
2017-06-08T00:29:33.007Z,1008.15
2017-06-08T00:30:34.243Z,1008.14
2017-06-08T00:31:35.503Z,1008.2
2017-06-08T00:32:36.735Z,1008.17
2017-06-08T00:33:37.972Z,1008.2
2017-06-08T00:34:39.334Z,1008.17
2017-06-08T00:35:40.614Z,1008.16
2017-06-08T00:36:41.865Z,1008.16
2017-06-08T00:37:43.117Z,1008.21
2017-06-08T00:38:44.349Z,1008.23
2017-06-08T00:39:45.839Z,1008.28
2017-06-08T00:40:47.199Z,1008.25
2017-06-08T00:41:48.470Z,1008.24
2017-06-08T00:42:49.719Z,1008.28
2017-06-08T00:43:50.956Z,1008.3
2017-06-08T00:44:52.207Z,1008.25
2017-06-08T00:45:53.535Z,1008.3
2017-06-08T00:46:54.835Z,1008.28
2017-06-08T00:47:56.193Z,1008.3
2017-06-08T00:48:57.431Z,1008.31
2017-06-08T00:49:58.670Z,1008.31
2017-06-08T00:50:59.919Z,1008.28
2017-06-08T00:52:01.213Z,1008.26
2017-06-08T00:53:02.547Z,1008.34
2017-06-08T00:54:03.746Z,1008.33
2017-06-08T00:55:04.987Z,1008.32
2017-06-08T00:56:06.256Z,1008.29
2017-06-08T00:57:07.479Z,1008.26
2017-06-08T00:58:08.783Z,1008.26
2017-06-08T00:59:10.025Z,1008.28
2017-06-08T01:00:11.254Z,1008.27
2017-06-08T01:01:12.604Z,1008.27
2017-06-08T01:02:13.819Z,1008.29
2017-06-08T01:03:15.057Z,1008.25
2017-06-08T01:04:16.444Z,1008.24
2017-06-08T01:05:17.678Z,1008.24
2017-06-08T01:06:18.949Z,1008.3
2017-06-08T01:07:20.201Z,1008.31
2017-06-08T01:08:21.439Z,1008.35
2017-06-08T01:09:22.713Z,1008.35
2017-06-08T01:10:23.955Z,1008.32
2017-06-08T01:11:25.277Z,1008.35
2017-06-08T01:12:26.548Z,1008.35
2017-06-08T01:13:27.765Z,1008.36
2017-06-08T01:14:29.030Z,1008.32
2017-06-08T01:15:30.244Z,1008.27
2017-06-08T01:16:31.575Z,1008.29
2017-06-08T01:17:32.818Z,1008.32
2017-06-08T01:18:34.108Z,1008.29
2017-06-08T01:19:35.376Z,1008.34
2017-06-08T01:20:36.601Z,1008.35
2017-06-08T01:21:37.836Z,1008.3
2017-06-08T01:22:39.087Z,1008.37
2017-06-08T01:23:40.449Z,1008.3
2017-06-08T01:24:41.661Z,1008.26
2017-06-08T01:25:42.901Z,1008.34
2017-06-08T01:26:44.129Z,1008.32
2017-06-08T01:27:45.438Z,1008.31
2017-06-08T01:28:46.727Z,1008.29
2017-06-08T01:29:47.976Z,1008.28
2017-06-08T01:30:49.234Z,1008.25
2017-06-08T01:31:50.487Z,1008.27
2017-06-08T01:32:51.750Z,1008.27
2017-06-08T01:33:53.052Z,1008.28
2017-06-08T01:34:54.297Z,1008.24
2017-06-08T01:35:55.665Z,1008.26
2017-06-08T01:36:57.013Z,1008.25
2017-06-08T01:37:58.302Z,1008.3
2017-06-08T01:38:59.546Z,1008.33
2017-06-08T01:40:00.778Z,1008.27
2017-06-08T01:41:02.016Z,1008.33
2017-06-08T01:42:03.282Z,1008.33
2017-06-08T01:43:04.517Z,1008.35
2017-06-08T01:44:05.778Z,1008.35
2017-06-08T01:45:07.002Z,1008.33
2017-06-08T01:46:08.244Z,1008.35
2017-06-08T01:47:09.493Z,1008.35
2017-06-08T01:48:10.848Z,1008.34
2017-06-08T01:49:12.092Z,1008.39
2017-06-08T01:50:13.349Z,1008.36
2017-06-08T01:51:14.596Z,1008.42
2017-06-08T01:52:15.818Z,1008.38
2017-06-08T01:53:17.076Z,1008.34
2017-06-08T01:54:18.662Z,1008.36
2017-06-08T01:55:19.836Z,1008.37
2017-06-08T01:56:21.081Z,1008.38
2017-06-08T01:57:22.362Z,1008.39
2017-06-08T01:58:23.788Z,1008.38
2017-06-08T01:59:25.031Z,1008.43
2017-06-08T02:00:26.281Z,1008.42
2017-06-08T02:01:27.524Z,1008.38
2017-06-08T02:02:28.770Z,1008.42
2017-06-08T02:03:30.052Z,1008.4
2017-06-08T02:04:31.367Z,1008.4
2017-06-08T02:05:32.598Z,1008.36
2017-06-08T02:06:33.884Z,1008.35
2017-06-08T02:07:35.148Z,1008.35
2017-06-08T02:08:36.404Z,1008.37
2017-06-08T02:09:37.650Z,1008.35
2017-06-08T02:10:38.908Z,1008.36
2017-06-08T02:11:40.158Z,1008.39
2017-06-08T02:12:41.389Z,1008.41
2017-06-08T02:13:42.636Z,1008.41
2017-06-08T02:14:43.926Z,1008.41
2017-06-08T02:15:45.162Z,1008.43
2017-06-08T02:16:46.399Z,1008.45
2017-06-08T02:17:47.746Z,1008.46
2017-06-08T02:18:49.015Z,1008.5
2017-06-08T02:19:50.246Z,1008.46
2017-06-08T02:20:51.490Z,1008.49
2017-06-08T02:21:52.737Z,1008.49
2017-06-08T02:22:53.992Z,1008.5
2017-06-08T02:23:55.260Z,1008.53
2017-06-08T02:24:56.526Z,1008.56
2017-06-08T02:25:57.799Z,1008.5
2017-06-08T02:26:59.076Z,1008.54
2017-06-08T02:28:00.411Z,1008.53
2017-06-08T02:29:01.667Z,1008.57
2017-06-08T02:30:02.927Z,1008.56
2017-06-08T02:31:04.170Z,1008.6
2017-06-08T02:32:05.397Z,1008.59
2017-06-08T02:33:06.644Z,1008.61
2017-06-08T02:34:07.889Z,1008.58
2017-06-08T02:35:09.145Z,1008.57
2017-06-08T02:36:10.398Z,1008.55
2017-06-08T02:37:11.691Z,1008.61
2017-06-08T02:38:13.102Z,1008.61
2017-06-08T02:39:14.340Z,1008.62
2017-06-08T02:40:15.577Z,1008.63
2017-06-08T02:41:16.821Z,1008.59
2017-06-08T02:42:18.061Z,1008.6
2017-06-08T02:43:19.322Z,1008.59
2017-06-08T02:44:20.613Z,1008.57
2017-06-08T02:45:21.830Z,1008.55
2017-06-08T02:46:23.073Z,1008.55
2017-06-08T02:47:24.324Z,1008.55
2017-06-08T02:48:25.576Z,1008.58
2017-06-08T02:49:27.149Z,1008.56
2017-06-08T02:50:28.288Z,1008.58
2017-06-08T02:51:29.536Z,1008.58
2017-06-08T02:52:30.799Z,1008.54
2017-06-08T02:53:32.026Z,1008.52
2017-06-08T02:54:33.271Z,1008.53
2017-06-08T02:55:34.562Z,1008.55
2017-06-08T02:56:35.791Z,1008.51
2017-06-08T02:57:37.058Z,1008.53
2017-06-08T02:58:38.339Z,1008.53
2017-06-08T02:59:39.598Z,1008.55
2017-06-08T03:00:40.837Z,1008.54
2017-06-08T03:01:42.089Z,1008.54
2017-06-08T03:02:43.382Z,1008.52
2017-06-08T03:03:44.646Z,1008.53
2017-06-08T03:04:45.890Z,1008.57
2017-06-08T03:05:47.147Z,1008.56
2017-06-08T03:06:48.394Z,1008.52
2017-06-08T03:07:49.642Z,1008.52
2017-06-08T03:08:51.020Z,1008.49
2017-06-08T03:09:52.403Z,1008.49
2017-06-08T03:10:53.619Z,1008.52
2017-06-08T03:11:54.866Z,1008.47
2017-06-08T03:12:56.156Z,1008.45
2017-06-08T03:13:57.387Z,1008.46
2017-06-08T03:14:58.666Z,1008.49
2017-06-08T03:16:00.006Z,1008.52
2017-06-08T03:17:01.252Z,1008.5
2017-06-08T03:18:02.491Z,1008.5
2017-06-08T03:19:03.738Z,1008.5
2017-06-08T03:20:05.061Z,1008.47
2017-06-08T03:21:06.312Z,1008.49
2017-06-08T03:22:07.557Z,1008.55
2017-06-08T03:23:08.802Z,1008.45
2017-06-08T03:24:10.103Z,1008.53
2017-06-08T03:25:11.494Z,1008.47
2017-06-08T03:26:12.755Z,1008.47
2017-06-08T03:27:14.027Z,1008.53
2017-06-08T03:28:15.303Z,1008.48
2017-06-08T03:29:16.677Z,1008.5
2017-06-08T03:30:17.915Z,1008.48
2017-06-08T03:31:19.306Z,1008.5
2017-06-08T03:32:20.537Z,1008.47
2017-06-08T03:33:21.835Z,1008.52
2017-06-08T03:34:23.068Z,1008.51
2017-06-08T03:35:24.310Z,1008.5
2017-06-08T03:36:25.642Z,1008.5
2017-06-08T03:37:26.899Z,1008.5
2017-06-08T03:38:28.145Z,1008.51
2017-06-08T03:39:29.454Z,1008.51
2017-06-08T03:40:30.701Z,1008.47
2017-06-08T03:41:31.936Z,1008.48
2017-06-08T03:42:33.173Z,1008.46
2017-06-08T03:43:34.422Z,1008.48
2017-06-08T03:44:35.662Z,1008.45
2017-06-08T03:45:36.985Z,1008.44
2017-06-08T03:46:38.220Z,1008.46
2017-06-08T03:47:39.485Z,1008.43
2017-06-08T03:48:40.728Z,1008.43
2017-06-08T03:49:42.031Z,1008.41
2017-06-08T03:50:43.282Z,1008.44
2017-06-08T03:51:44.543Z,1008.44
2017-06-08T03:52:45.812Z,1008.41
2017-06-08T03:53:47.071Z,1008.44
2017-06-08T03:54:48.333Z,1008.47
2017-06-08T03:55:49.559Z,1008.46
2017-06-08T03:56:50.823Z,1008.46
2017-06-08T03:57:52.136Z,1008.47
2017-06-08T03:58:53.394Z,1008.5
2017-06-08T03:59:54.725Z,1008.5
2017-06-08T04:00:55.974Z,1008.47
2017-06-08T04:01:57.230Z,1008.47
2017-06-08T04:02:58.500Z,1008.47
2017-06-08T04:03:59.749Z,1008.46
2017-06-08T04:05:01.040Z,1008.52
2017-06-08T04:06:02.251Z,1008.48
2017-06-08T04:07:03.509Z,1008.45
2017-06-08T04:08:04.728Z,1008.48
2017-06-08T04:09:05.977Z,1008.54
2017-06-08T04:10:07.239Z,1008.52
2017-06-08T04:11:08.596Z,1008.55
2017-06-08T04:12:09.845Z,1008.54
2017-06-08T04:13:11.123Z,1008.57
2017-06-08T04:14:12.366Z,1008.55
2017-06-08T04:15:13.616Z,1008.53
2017-06-08T04:16:14.930Z,1008.55
2017-06-08T04:17:16.200Z,1008.52
2017-06-08T04:18:17.450Z,1008.57
2017-06-08T04:19:18.691Z,1008.61
2017-06-08T04:20:19.931Z,1008.58
2017-06-08T04:21:21.177Z,1008.63
2017-06-08T04:22:22.442Z,1008.59
2017-06-08T04:23:23.691Z,1008.57
2017-06-08T04:24:24.942Z,1008.58
2017-06-08T04:25:26.189Z,1008.62
2017-06-08T04:26:27.425Z,1008.64
2017-06-08T04:27:28.677Z,1008.63
2017-06-08T04:28:29.914Z,1008.7
2017-06-08T04:29:31.184Z,1008.67
2017-06-08T04:30:32.460Z,1008.63
2017-06-08T04:31:33.688Z,1008.68
2017-06-08T04:32:34.948Z,1008.62
2017-06-08T04:33:36.207Z,1008.63
2017-06-08T04:34:37.436Z,1008.67
2017-06-08T04:35:38.722Z,1008.65
2017-06-08T04:36:39.982Z,1008.67
2017-06-08T04:37:41.264Z,1008.71
2017-06-08T04:38:42.515Z,1008.66
2017-06-08T04:39:43.751Z,1008.63
2017-06-08T04:40:44.994Z,1008.7
2017-06-08T04:41:46.240Z,1008.71
2017-06-08T04:42:47.489Z,1008.69
2017-06-08T04:43:48.742Z,1008.71
2017-06-08T04:44:49.998Z,1008.73
2017-06-08T04:45:51.263Z,1008.72
2017-06-08T04:46:52.505Z,1008.71
2017-06-08T04:47:53.816Z,1008.72
2017-06-08T04:48:55.108Z,1008.72
2017-06-08T04:49:56.446Z,1008.7
2017-06-08T04:50:57.699Z,1008.7
2017-06-08T04:51:58.970Z,1008.75
2017-06-08T04:53:00.187Z,1008.7
2017-06-08T04:54:01.433Z,1008.7
2017-06-08T04:55:02.878Z,1008.73
2017-06-08T04:56:04.137Z,1008.74
2017-06-08T04:57:05.369Z,1008.78
2017-06-08T04:58:06.603Z,1008.74
2017-06-08T04:59:07.857Z,1008.81
2017-06-08T05:00:09.120Z,1008.76
2017-06-08T05:01:10.393Z,1008.79
2017-06-08T05:02:11.613Z,1008.83
2017-06-08T05:03:12.915Z,1008.8
2017-06-08T05:04:14.162Z,1008.79
2017-06-08T05:05:15.437Z,1008.81
2017-06-08T05:06:16.706Z,1008.82
2017-06-08T05:07:17.947Z,1008.85
2017-06-08T05:08:19.208Z,1008.85
2017-06-08T05:09:20.443Z,1008.89
2017-06-08T05:10:21.705Z,1008.83
2017-06-08T05:11:22.965Z,1008.87
2017-06-08T05:12:24.194Z,1008.87
2017-06-08T05:13:25.433Z,1008.9
2017-06-08T05:14:26.807Z,1008.86
2017-06-08T05:15:28.035Z,1008.9
2017-06-08T05:16:29.282Z,1008.91
2017-06-08T05:17:30.521Z,1008.96
2017-06-08T05:18:31.800Z,1008.97
2017-06-08T05:19:33.055Z,1008.93
2017-06-08T05:20:34.296Z,1008.92
2017-06-08T05:21:35.549Z,1008.94
2017-06-08T05:22:36.853Z,1008.96
2017-06-08T05:23:38.099Z,1008.88
2017-06-08T05:24:39.373Z,1008.99
2017-06-08T05:25:40.648Z,1008.91
2017-06-08T05:26:41.882Z,1008.91
2017-06-08T05:27:43.130Z,1008.95
2017-06-08T05:28:44.393Z,1008.92
2017-06-08T05:29:45.636Z,1008.95
2017-06-08T05:30:46.884Z,1008.96
2017-06-08T05:31:48.154Z,1008.94
2017-06-08T05:32:49.416Z,1008.95
2017-06-08T05:33:50.657Z,1008.92
2017-06-08T05:34:51.917Z,1008.94
2017-06-08T05:35:53.202Z,1008.96
2017-06-08T05:36:54.399Z,1008.96
2017-06-08T05:37:55.765Z,1008.94
2017-06-08T05:38:57.121Z,1008.92
2017-06-08T05:39:58.367Z,1008.88
2017-06-08T05:40:59.612Z,1008.91
2017-06-08T05:42:00.876Z,1008.91
2017-06-08T05:43:02.109Z,1008.87
2017-06-08T05:44:03.386Z,1008.9
2017-06-08T05:45:04.667Z,1008.9
2017-06-08T05:46:05.952Z,1008.9
2017-06-08T05:47:07.204Z,1008.87
2017-06-08T05:48:08.449Z,1008.86
2017-06-08T05:49:09.781Z,1008.87
2017-06-08T05:50:11.076Z,1008.83
2017-06-08T05:51:12.399Z,1008.74
2017-06-08T05:52:13.644Z,1008.74
2017-06-08T05:53:14.894Z,1008.83
2017-06-08T05:54:16.146Z,1008.81
2017-06-08T05:55:17.456Z,1008.82
2017-06-08T05:56:18.720Z,1008.79
2017-06-08T05:57:19.979Z,1008.81
2017-06-08T05:58:21.247Z,1008.82
2017-06-08T05:59:22.633Z,1008.83
2017-06-08T06:00:23.873Z,1008.86
2017-06-08T06:01:25.125Z,1008.82
2017-06-08T06:02:26.551Z,1008.8
2017-06-08T06:03:27.704Z,1008.79
2017-06-08T06:04:29.019Z,1008.78
2017-06-08T06:05:30.276Z,1008.75
2017-06-08T06:06:31.605Z,1008.69
2017-06-08T06:07:32.877Z,1008.83
2017-06-08T06:08:34.141Z,1008.79
2017-06-08T06:09:35.450Z,1008.87
2017-06-08T06:10:36.700Z,1008.88
2017-06-08T06:11:37.978Z,1008.79
2017-06-08T06:12:39.207Z,1008.85
2017-06-08T06:13:40.462Z,1008.84
2017-06-08T06:14:41.711Z,1008.87
2017-06-08T06:15:43.143Z,1008.75
2017-06-08T06:16:44.407Z,1008.82
2017-06-08T06:17:45.662Z,1008.81
2017-06-08T06:18:47.047Z,1008.78
2017-06-08T06:19:48.302Z,1008.8
2017-06-08T06:20:49.573Z,1008.8
2017-06-08T06:21:50.805Z,1008.79
2017-06-08T06:22:52.053Z,1008.79
2017-06-08T06:23:53.301Z,1008.82
2017-06-08T06:24:54.541Z,1008.87
2017-06-08T06:25:55.827Z,1008.75
2017-06-08T06:26:57.068Z,1008.63
2017-06-08T06:27:58.352Z,1008.65
2017-06-08T06:28:59.621Z,1008.67
2017-06-08T06:30:00.874Z,1008.67
2017-06-08T06:31:02.145Z,1008.7
2017-06-08T06:32:03.470Z,1008.67
2017-06-08T06:33:04.822Z,1008.67
2017-06-08T06:34:06.067Z,1008.7
2017-06-08T06:35:07.305Z,1008.75
2017-06-08T06:36:08.548Z,1008.84
2017-06-08T06:37:09.793Z,1008.77
2017-06-08T06:38:11.081Z,1008.84
2017-06-08T06:39:12.428Z,1008.89
2017-06-08T06:40:13.564Z,1008.92
2017-06-08T06:41:14.836Z,1008.89
2017-06-08T06:42:16.119Z,1008.83
2017-06-08T06:43:17.483Z,1008.85
2017-06-08T06:44:18.825Z,1008.8
2017-06-08T06:45:20.104Z,1008.77
2017-06-08T06:46:21.331Z,1008.75
2017-06-08T06:47:22.570Z,1008.77
2017-06-08T06:48:23.820Z,1008.74
2017-06-08T06:49:25.058Z,1008.77
2017-06-08T06:50:26.343Z,1008.83
2017-06-08T06:51:27.616Z,1008.74
2017-06-08T06:52:28.869Z,1008.76
2017-06-08T06:53:30.164Z,1008.71
2017-06-08T06:54:31.413Z,1008.66
2017-06-08T06:55:32.674Z,1008.65
2017-06-08T06:56:33.923Z,1008.66
2017-06-08T06:57:35.174Z,1008.65
2017-06-08T06:58:36.465Z,1008.66
2017-06-08T06:59:37.724Z,1008.62
2017-06-08T07:00:38.967Z,1008.59
2017-06-08T07:01:40.226Z,1008.64
2017-06-08T07:02:41.481Z,1008.66
2017-06-08T07:03:42.753Z,1008.74
2017-06-08T07:04:44.003Z,1008.68
2017-06-08T07:05:45.256Z,1008.65
2017-06-08T07:06:46.508Z,1008.68
2017-06-08T07:07:47.775Z,1008.69
2017-06-08T07:08:49.103Z,1008.66
2017-06-08T07:09:50.361Z,1008.62
2017-06-08T07:10:51.608Z,1008.65
2017-06-08T07:11:53.011Z,1008.66
2017-06-08T07:12:54.268Z,1008.63
2017-06-08T07:13:55.624Z,1008.63
2017-06-08T07:14:56.879Z,1008.64
2017-06-08T07:15:58.149Z,1008.62
2017-06-08T07:16:59.435Z,1008.62
2017-06-08T07:18:00.731Z,1008.65
2017-06-08T07:19:01.943Z,1008.62
2017-06-08T07:20:03.201Z,1008.64
2017-06-08T07:21:04.443Z,1008.64
2017-06-08T07:22:05.707Z,1008.6
2017-06-08T07:23:06.926Z,1008.58
2017-06-08T07:24:08.192Z,1008.58
2017-06-08T07:25:09.447Z,1008.57
2017-06-08T07:26:10.719Z,1008.64
2017-06-08T07:27:12.074Z,1008.63
2017-06-08T07:28:13.377Z,1008.63
2017-06-08T07:29:14.648Z,1008.72
2017-06-08T07:30:15.892Z,1008.69
2017-06-08T07:31:17.169Z,1008.77
2017-06-08T07:32:18.413Z,1008.71
2017-06-08T07:33:19.664Z,1008.74
2017-06-08T07:34:20.921Z,1008.76
2017-06-08T07:35:22.225Z,1008.79
2017-06-08T07:36:23.520Z,1008.75
2017-06-08T07:37:24.770Z,1008.76
2017-06-08T07:38:26.039Z,1008.8
2017-06-08T07:39:27.286Z,1008.83
2017-06-08T07:40:28.584Z,1008.81
2017-06-08T07:41:29.855Z,1008.83
2017-06-08T07:42:31.105Z,1008.8
2017-06-08T07:43:32.387Z,1008.83
2017-06-08T07:44:33.621Z,1008.8
2017-06-08T07:45:35.004Z,1008.78
2017-06-08T07:46:36.261Z,1008.83
2017-06-08T07:47:37.502Z,1008.87
2017-06-08T07:48:38.776Z,1008.85
2017-06-08T07:49:40.036Z,1008.84
2017-06-08T07:50:41.284Z,1008.88
2017-06-08T07:51:42.534Z,1008.84
2017-06-08T07:52:43.805Z,1008.82
2017-06-08T07:53:45.079Z,1008.78
2017-06-08T07:54:46.393Z,1008.8
2017-06-08T07:55:47.629Z,1008.8
2017-06-08T07:56:48.872Z,1008.79
2017-06-08T07:57:50.119Z,1008.83
2017-06-08T07:58:51.363Z,1008.79
2017-06-08T07:59:52.629Z,1008.77
2017-06-08T08:00:53.918Z,1008.74
2017-06-08T08:01:55.144Z,1008.77
2017-06-08T08:02:56.407Z,1008.81
2017-06-08T08:03:57.745Z,1008.76
2017-06-08T08:04:59.158Z,1008.74
2017-06-08T08:06:00.397Z,1008.78
2017-06-08T08:07:01.640Z,1008.8
2017-06-08T08:08:02.885Z,1008.86
2017-06-08T08:09:04.131Z,1008.83
2017-06-08T08:10:05.391Z,1008.85
2017-06-08T08:11:06.717Z,1008.8
2017-06-08T08:12:07.898Z,1008.81
2017-06-08T08:13:09.168Z,1008.78
2017-06-08T08:14:10.425Z,1008.78
2017-06-08T08:15:11.686Z,1008.75
2017-06-08T08:16:13.038Z,1008.66
2017-06-08T08:17:14.326Z,1008.65
2017-06-08T08:18:15.574Z,1008.58
2017-06-08T08:19:16.940Z,1008.58
2017-06-08T08:20:18.159Z,1008.55
2017-06-08T08:21:19.424Z,1008.57
2017-06-08T08:22:20.657Z,1008.58
2017-06-08T08:23:21.958Z,1008.57
2017-06-08T08:24:23.219Z,1008.59
2017-06-08T08:25:24.546Z,1008.58
2017-06-08T08:26:25.795Z,1008.63
2017-06-08T08:27:27.056Z,1008.67
2017-06-08T08:28:28.274Z,1008.74
2017-06-08T08:29:29.586Z,1008.73
2017-06-08T08:30:30.960Z,1008.75
2017-06-08T08:31:32.214Z,1008.7
2017-06-08T08:32:33.461Z,1008.77
2017-06-08T08:33:34.714Z,1008.81
2017-06-08T08:34:35.967Z,1008.71
2017-06-08T08:35:37.336Z,1008.63
2017-06-08T08:36:38.581Z,1008.87
2017-06-08T08:37:39.826Z,1009.07
2017-06-08T08:38:41.091Z,1009.04
2017-06-08T08:39:42.314Z,1008.85
2017-06-08T08:40:43.626Z,1008.71
2017-06-08T08:41:44.886Z,1008.71
2017-06-08T08:42:46.144Z,1008.8
2017-06-08T08:43:47.405Z,1008.93
2017-06-08T08:44:48.744Z,1008.96
2017-06-08T08:45:50.023Z,1009.01
2017-06-08T08:46:51.253Z,1009.05
2017-06-08T08:47:52.581Z,1009.09
2017-06-08T08:48:53.892Z,1009.04
2017-06-08T08:49:55.137Z,1008.88
2017-06-08T08:50:56.409Z,1008.75
2017-06-08T08:51:57.674Z,1008.7
2017-06-08T08:52:58.908Z,1008.68
2017-06-08T08:54:00.283Z,1008.71
2017-06-08T08:55:01.520Z,1008.85
2017-06-08T08:56:02.877Z,1009.07
2017-06-08T08:57:04.140Z,1009.28
2017-06-08T08:58:05.401Z,1009.24
2017-06-08T08:59:06.682Z,1009.03
2017-06-08T09:00:07.936Z,1008.77
2017-06-08T09:01:09.265Z,1008.78
2017-06-08T09:02:10.525Z,1008.89
2017-06-08T09:03:11.778Z,1008.93
2017-06-08T09:04:13.120Z,1009.23
2017-06-08T09:05:14.366Z,1009.84
2017-06-08T09:06:15.633Z,1009.38
2017-06-08T09:07:16.900Z,1009.35
2017-06-08T09:08:18.154Z,1008.97
2017-06-08T09:09:19.411Z,1008.76
2017-06-08T09:10:20.679Z,1008.78
2017-06-08T09:11:21.928Z,1008.92
2017-06-08T09:12:23.226Z,1009.14
2017-06-08T09:13:24.562Z,1008.87
2017-06-08T09:14:25.809Z,1008.85
2017-06-08T09:15:27.062Z,1008.69
2017-06-08T09:16:28.318Z,1008.69
2017-06-08T09:17:29.613Z,1008.85
2017-06-08T09:18:30.871Z,1008.92
2017-06-08T09:19:32.141Z,1008.85
2017-06-08T09:20:33.393Z,1008.94
2017-06-08T09:21:34.641Z,1008.79
2017-06-08T09:22:35.939Z,1008.96
2017-06-08T09:23:37.241Z,1009.11
2017-06-08T09:24:38.516Z,1009.47
2017-06-08T09:25:39.766Z,1009.47
2017-06-08T09:26:41.030Z,1009.96
2017-06-08T09:27:42.273Z,1010.57
2017-06-08T09:28:43.541Z,1009.89
2017-06-08T09:29:44.803Z,1009.53
2017-06-08T09:30:46.092Z,1009.87
2017-06-08T09:31:47.325Z,1009.35
2017-06-08T09:32:48.570Z,1009.13
2017-06-08T09:33:49.831Z,1008.69
2017-06-08T09:34:51.108Z,1008.65
2017-06-08T09:35:52.339Z,1008.82
2017-06-08T09:36:53.709Z,1008.7
2017-06-08T09:37:54.969Z,1008.75
2017-06-08T09:38:56.222Z,1009.05
2017-06-08T09:39:57.471Z,1008.57
2017-06-08T09:40:58.742Z,1008.54
2017-06-08T09:42:00.033Z,1008.55
2017-06-08T09:43:01.330Z,1008.56
2017-06-08T09:44:02.591Z,1008.51
2017-06-08T09:45:03.837Z,1008.79
2017-06-08T09:46:05.097Z,1008.88
2017-06-08T09:47:06.358Z,1008.79
2017-06-08T09:48:07.613Z,1008.6
2017-06-08T09:49:08.892Z,1008.58
2017-06-08T09:50:10.140Z,1008.47
2017-06-08T09:51:11.395Z,1008.45
2017-06-08T09:52:12.651Z,1008.4
2017-06-08T09:53:13.914Z,1008.33
2017-06-08T09:54:15.164Z,1008.41
2017-06-08T09:55:16.488Z,1008.38
2017-06-08T09:56:17.730Z,1008.66
2017-06-08T09:57:18.991Z,1008.79
2017-06-08T09:58:20.231Z,1008.65
2017-06-08T09:59:21.511Z,1008.6
2017-06-08T10:00:22.769Z,1008.62
2017-06-08T10:01:24.043Z,1008.62
2017-06-08T10:02:25.504Z,1008.56
2017-06-08T10:03:26.855Z,1008.45
2017-06-08T10:04:28.127Z,1008.55
2017-06-08T10:05:29.399Z,1008.46
2017-06-08T10:06:30.665Z,1008.52
2017-06-08T10:07:31.913Z,1008.39
2017-06-08T10:08:33.214Z,1008.35
2017-06-08T10:09:34.457Z,1008.32
2017-06-08T10:10:35.785Z,1008.32
2017-06-08T10:11:37.051Z,1008.36
2017-06-08T10:12:38.379Z,1008.34
2017-06-08T10:13:39.623Z,1008.31
2017-06-08T10:14:41.008Z,1008.32
2017-06-08T10:15:42.270Z,1008.24
2017-06-08T10:16:43.512Z,1008.22
2017-06-08T10:17:45.042Z,1008.33
2017-06-08T10:18:46.324Z,1008.17
2017-06-08T10:19:47.606Z,1008.18
2017-06-08T10:20:48.850Z,1008.18
2017-06-08T10:21:50.098Z,1008.28
2017-06-08T10:22:51.387Z,1008.24
2017-06-08T10:23:52.690Z,1008.25
2017-06-08T10:24:53.931Z,1008.32
2017-06-08T10:25:55.185Z,1008.35
2017-06-08T10:26:56.446Z,1008.31
2017-06-08T10:27:57.750Z,1008.31
2017-06-08T10:28:59.159Z,1008.3
2017-06-08T10:30:00.442Z,1008.29
2017-06-08T10:31:01.663Z,1008.26
2017-06-08T10:32:02.924Z,1008.22
2017-06-08T10:33:04.189Z,1008.22
2017-06-08T10:34:05.476Z,1008.24
2017-06-08T10:35:06.853Z,1008.22
2017-06-08T10:36:08.037Z,1008.2
2017-06-08T10:37:09.295Z,1008.26
2017-06-08T10:38:10.577Z,1008.3
2017-06-08T10:39:11.821Z,1008.25
2017-06-08T10:40:13.110Z,1008.25
2017-06-08T10:41:14.357Z,1008.37
2017-06-08T10:42:15.658Z,1008.31
2017-06-08T10:43:16.949Z,1008.33
2017-06-08T10:44:18.196Z,1008.32
2017-06-08T10:45:19.471Z,1008.39
2017-06-08T10:46:20.698Z,1008.31
2017-06-08T10:47:21.965Z,1008.34
2017-06-08T10:48:23.228Z,1008.34
2017-06-08T10:49:24.493Z,1008.27
2017-06-08T10:50:25.788Z,1008.3
2017-06-08T10:51:27.001Z,1008.3
2017-06-08T10:52:28.269Z,1008.27
2017-06-08T10:53:29.567Z,1008.26
2017-06-08T10:54:30.956Z,1008.23
2017-06-08T10:55:32.153Z,1008.21
2017-06-08T10:56:33.396Z,1008.19
2017-06-08T10:57:34.651Z,1008.16
2017-06-08T10:58:35.906Z,1008.14
2017-06-08T10:59:37.175Z,1008.15
2017-06-08T11:00:38.424Z,1008.2
2017-06-08T11:01:39.733Z,1008.22
2017-06-08T11:02:41.013Z,1008.19
2017-06-08T11:03:42.270Z,1008.13
2017-06-08T11:04:43.546Z,1008.19
2017-06-08T11:05:44.808Z,1008.16
2017-06-08T11:06:46.076Z,1008.11
2017-06-08T11:07:47.367Z,1008.16
2017-06-08T11:08:48.650Z,1008.15
2017-06-08T11:09:49.899Z,1008.2
2017-06-08T11:10:51.158Z,1008.15
2017-06-08T11:11:52.407Z,1008.17
2017-06-08T11:12:53.759Z,1008.19
2017-06-08T11:13:55.027Z,1008.22
2017-06-08T11:14:56.294Z,1008.25
2017-06-08T11:15:57.538Z,1008.17
2017-06-08T11:16:58.788Z,1008.15
2017-06-08T11:18:00.064Z,1008.09
2017-06-08T11:19:01.386Z,1008.11
2017-06-08T11:20:02.659Z,1008.05
2017-06-08T11:21:03.939Z,1008.03
2017-06-08T11:22:05.158Z,1008
2017-06-08T11:23:06.415Z,1007.97
2017-06-08T11:24:07.680Z,1007.96
2017-06-08T11:25:08.939Z,1007.93
2017-06-08T11:26:10.213Z,1007.92
2017-06-08T11:27:11.481Z,1007.88
2017-06-08T11:28:12.730Z,1007.92
2017-06-08T11:29:13.991Z,1007.87
2017-06-08T11:30:15.248Z,1007.89
2017-06-08T11:31:16.503Z,1007.91
2017-06-08T11:32:17.790Z,1007.91
2017-06-08T11:33:19.009Z,1007.87
2017-06-08T11:34:20.267Z,1007.89
2017-06-08T11:35:21.527Z,1007.82
2017-06-08T11:36:22.764Z,1007.85
2017-06-08T11:37:24.095Z,1007.88
2017-06-08T11:38:25.369Z,1007.86
2017-06-08T11:39:26.624Z,1007.8
2017-06-08T11:40:27.880Z,1007.77
2017-06-08T11:41:29.187Z,1007.84
2017-06-08T11:42:30.471Z,1007.77
2017-06-08T11:43:31.709Z,1007.82
2017-06-08T11:44:32.989Z,1007.75
2017-06-08T11:45:34.225Z,1007.77
2017-06-08T11:46:35.509Z,1007.72
2017-06-08T11:47:36.732Z,1007.77
2017-06-08T11:48:37.979Z,1007.79
2017-06-08T11:49:39.254Z,1007.79
2017-06-08T11:50:40.525Z,1007.8
2017-06-08T11:51:41.794Z,1007.69
2017-06-08T11:52:43.017Z,1007.75
2017-06-08T11:53:44.266Z,1007.66
2017-06-08T11:54:45.527Z,1007.67
2017-06-08T11:55:46.792Z,1007.6
2017-06-08T11:56:48.094Z,1007.67
2017-06-08T11:57:49.420Z,1007.67
2017-06-08T11:58:50.691Z,1007.67
2017-06-08T11:59:51.952Z,1007.65
2017-06-08T12:00:53.197Z,1007.63
2017-06-08T12:01:54.474Z,1007.65
2017-06-08T12:02:55.727Z,1007.55
2017-06-08T12:03:56.963Z,1007.55
2017-06-08T12:04:58.219Z,1007.55
2017-06-08T12:05:59.477Z,1007.46
2017-06-08T12:07:00.725Z,1007.47
2017-06-08T12:08:01.982Z,1007.48
2017-06-08T12:09:03.267Z,1007.46
2017-06-08T12:10:04.515Z,1007.43
2017-06-08T12:11:05.813Z,1007.36
2017-06-08T12:12:07.064Z,1007.35
2017-06-08T12:13:08.319Z,1007.44
2017-06-08T12:14:09.751Z,1007.33
2017-06-08T12:15:11.142Z,1007.33
2017-06-08T12:16:12.399Z,1007.33
2017-06-08T12:17:13.649Z,1007.29
2017-06-08T12:18:14.895Z,1007.31
2017-06-08T12:19:16.149Z,1007.26
2017-06-08T12:20:17.439Z,1007.25
2017-06-08T12:21:18.687Z,1007.25
2017-06-08T12:22:19.925Z,1007.32
2017-06-08T12:23:21.198Z,1007.34
2017-06-08T12:24:22.449Z,1007.36